sensor_id;sensor_type;location;lat;lon;timestamp;P1;durP1;ratioP1;P2;durP2;ratioP2
2772;SDS011;1394;47.044;15.744;2023-10-13T00:01:21;28.40;;;5.60;;
2772;SDS011;1394;47.044;15.744;2023-10-13T00:03:49;26.97;;;3.80;;
2772;SDS011;1394;47.044;15.744;2023-10-13T00:06:17;26.17;;;2.77;;
2772;SDS011;1394;47.044;15.744;2023-10-13T00:08:44;26.13;;;2.80;;
2772;SDS011;1394;47.044;15.744;2023-10-13T00:11:12;25.27;;;2.40;;
2772;SDS011;1394;47.044;15.744;2023-10-13T00:13:41;26.30;;;2.40;;
2772;SDS011;1394;47.044;15.744;2023-10-13T00:16:15;25.23;;;2.47;;
2772;SDS011;1394;47.044;15.744;2023-10-13T00:18:46;25.57;;;2.60;;
2772;SDS011;1394;47.044;15.744;2023-10-13T00:21:14;25.10;;;2.43;;
2772;SDS011;1394;47.044;15.744;2023-10-13T00:23:45;26.00;;;2.40;;
2772;SDS011;1394;47.044;15.744;2023-10-13T00:26:18;25.90;;;2.20;;
2772;SDS011;1394;47.044;15.744;2023-10-13T00:28:50;25.20;;;2.37;;
2772;SDS011;1394;47.044;15.744;2023-10-13T00:31:24;25.20;;;2.60;;
2772;SDS011;1394;47.044;15.744;2023-10-13T00:33:54;25.53;;;2.63;;
2772;SDS011;1394;47.044;15.744;2023-10-13T00:36:26;26.23;;;2.10;;
2772;SDS011;1394;47.044;15.744;2023-10-13T00:38:53;25.93;;;2.27;;
2772;SDS011;1394;47.044;15.744;2023-10-13T00:41:21;25.00;;;2.20;;
2772;SDS011;1394;47.044;15.744;2023-10-13T00:44:12;27.50;;;2.23;;
2772;SDS011;1394;47.044;15.744;2023-10-13T00:46:41;24.90;;;2.10;;
2772;SDS011;1394;47.044;15.744;2023-10-13T00:49:10;25.20;;;2.10;;
2772;SDS011;1394;47.044;15.744;2023-10-13T00:51:40;27.10;;;2.30;;
2772;SDS011;1394;47.044;15.744;2023-10-13T00:54:12;25.67;;;2.10;;
2772;SDS011;1394;47.044;15.744;2023-10-13T00:56:43;25.13;;;2.10;;
2772;SDS011;1394;47.044;15.744;2023-10-13T00:59:16;26.10;;;1.93;;
2772;SDS011;1394;47.044;15.744;2023-10-13T01:01:50;25.53;;;2.13;;
2772;SDS011;1394;47.044;15.744;2023-10-13T01:04:20;25.20;;;1.97;;
2772;SDS011;1394;47.044;15.744;2023-10-13T01:06:48;26.33;;;2.20;;
2772;SDS011;1394;47.044;15.744;2023-10-13T01:09:16;25.20;;;2.23;;
2772;SDS011;1394;47.044;15.744;2023-10-13T01:11:43;26.30;;;2.00;;
2772;SDS011;1394;47.044;15.744;2023-10-13T01:14:12;25.90;;;2.30;;
2772;SDS011;1394;47.044;15.744;2023-10-13T01:16:41;26.27;;;2.00;;
2772;SDS011;1394;47.044;15.744;2023-10-13T01:19:09;25.70;;;2.50;;
2772;SDS011;1394;47.044;15.744;2023-10-13T01:21:37;24.50;;;1.97;;
2772;SDS011;1394;47.044;15.744;2023-10-13T01:24:07;24.93;;;2.27;;
2772;SDS011;1394;47.044;15.744;2023-10-13T01:26:34;24.70;;;2.40;;
2772;SDS011;1394;47.044;15.744;2023-10-13T01:29:05;25.80;;;2.40;;
2772;SDS011;1394;47.044;15.744;2023-10-13T01:31:39;24.90;;;2.00;;
2772;SDS011;1394;47.044;15.744;2023-10-13T01:34:12;25.37;;;1.93;;
2772;SDS011;1394;47.044;15.744;2023-10-13T01:36:38;26.23;;;1.90;;
2772;SDS011;1394;47.044;15.744;2023-10-13T01:39:08;25.03;;;2.03;;
2772;SDS011;1394;47.044;15.744;2023-10-13T01:41:36;25.20;;;1.97;;
2772;SDS011;1394;47.044;15.744;2023-10-13T01:44:04;25.27;;;2.10;;
2772;SDS011;1394;47.044;15.744;2023-10-13T01:46:30;24.87;;;2.00;;
2772;SDS011;1394;47.044;15.744;2023-10-13T01:49:02;24.87;;;2.13;;
2772;SDS011;1394;47.044;15.744;2023-10-13T01:51:28;25.33;;;2.77;;
2772;SDS011;1394;47.044;15.744;2023-10-13T01:53:55;25.60;;;2.50;;
2772;SDS011;1394;47.044;15.744;2023-10-13T01:56:23;25.57;;;2.20;;
2772;SDS011;1394;47.044;15.744;2023-10-13T01:58:55;24.60;;;1.97;;
2772;SDS011;1394;47.044;15.744;2023-10-13T02:01:21;26.83;;;2.83;;
2772;SDS011;1394;47.044;15.744;2023-10-13T02:03:58;27.83;;;3.10;;
2772;SDS011;1394;47.044;15.744;2023-10-13T02:06:28;25.70;;;2.53;;
2772;SDS011;1394;47.044;15.744;2023-10-13T02:08:59;25.50;;;2.83;;
2772;SDS011;1394;47.044;15.744;2023-10-13T02:11:36;25.27;;;2.07;;
2772;SDS011;1394;47.044;15.744;2023-10-13T02:14:03;25.83;;;2.13;;
2772;SDS011;1394;47.044;15.744;2023-10-13T02:16:29;25.13;;;2.10;;
2772;SDS011;1394;47.044;15.744;2023-10-13T02:18:57;25.43;;;2.43;;
2772;SDS011;1394;47.044;15.744;2023-10-13T02:21:29;25.10;;;2.10;;
2772;SDS011;1394;47.044;15.744;2023-10-13T02:23:57;25.00;;;2.60;;
2772;SDS011;1394;47.044;15.744;2023-10-13T02:26:29;26.20;;;2.50;;
2772;SDS011;1394;47.044;15.744;2023-10-13T02:28:58;27.50;;;1.90;;
2772;SDS011;1394;47.044;15.744;2023-10-13T02:31:26;25.33;;;2.30;;
2772;SDS011;1394;47.044;15.744;2023-10-13T02:33:54;27.17;;;2.03;;
2772;SDS011;1394;47.044;15.744;2023-10-13T02:36:20;25.50;;;1.90;;
2772;SDS011;1394;47.044;15.744;2023-10-13T02:39:01;24.77;;;2.37;;
2772;SDS011;1394;47.044;15.744;2023-10-13T02:41:32;25.00;;;1.87;;
2772;SDS011;1394;47.044;15.744;2023-10-13T02:44:03;25.43;;;1.90;;
2772;SDS011;1394;47.044;15.744;2023-10-13T02:46:32;24.67;;;1.80;;
2772;SDS011;1394;47.044;15.744;2023-10-13T02:49:00;25.40;;;1.90;;
2772;SDS011;1394;47.044;15.744;2023-10-13T02:51:35;25.70;;;2.03;;
2772;SDS011;1394;47.044;15.744;2023-10-13T02:54:01;24.77;;;2.20;;
2772;SDS011;1394;47.044;15.744;2023-10-13T02:56:34;25.93;;;2.40;;
2772;SDS011;1394;47.044;15.744;2023-10-13T02:59:00;25.30;;;2.00;;
2772;SDS011;1394;47.044;15.744;2023-10-13T03:01:31;25.20;;;1.93;;
2772;SDS011;1394;47.044;15.744;2023-10-13T03:03:59;24.43;;;1.60;;
2772;SDS011;1394;47.044;15.744;2023-10-13T03:06:27;26.17;;;1.90;;
2772;SDS011;1394;47.044;15.744;2023-10-13T03:08:57;25.90;;;2.13;;
2772;SDS011;1394;47.044;15.744;2023-10-13T03:11:39;24.70;;;1.70;;
2772;SDS011;1394;47.044;15.744;2023-10-13T03:14:13;25.90;;;1.80;;
2772;SDS011;1394;47.044;15.744;2023-10-13T03:16:50;25.40;;;2.40;;
2772;SDS011;1394;47.044;15.744;2023-10-13T03:19:17;24.70;;;1.80;;
2772;SDS011;1394;47.044;15.744;2023-10-13T03:21:46;24.13;;;1.70;;
2772;SDS011;1394;47.044;15.744;2023-10-13T03:24:20;24.97;;;2.10;;
2772;SDS011;1394;47.044;15.744;2023-10-13T03:26:58;24.63;;;2.00;;
2772;SDS011;1394;47.044;15.744;2023-10-13T03:29:24;25.50;;;2.37;;
2772;SDS011;1394;47.044;15.744;2023-10-13T03:31:57;26.20;;;2.30;;
2772;SDS011;1394;47.044;15.744;2023-10-13T03:34:32;24.67;;;1.97;;
2772;SDS011;1394;47.044;15.744;2023-10-13T03:37:00;25.20;;;2.13;;
2772;SDS011;1394;47.044;15.744;2023-10-13T03:39:36;25.90;;;2.30;;
2772;SDS011;1394;47.044;15.744;2023-10-13T03:42:09;25.50;;;2.30;;
2772;SDS011;1394;47.044;15.744;2023-10-13T03:44:43;24.43;;;1.73;;
2772;SDS011;1394;47.044;15.744;2023-10-13T03:47:14;25.77;;;2.40;;
2772;SDS011;1394;47.044;15.744;2023-10-13T03:49:51;25.07;;;2.00;;
2772;SDS011;1394;47.044;15.744;2023-10-13T03:52:38;24.00;;;1.70;;
2772;SDS011;1394;47.044;15.744;2023-10-13T03:55:06;25.33;;;1.87;;
2772;SDS011;1394;47.044;15.744;2023-10-13T03:57:41;28.27;;;2.30;;
2772;SDS011;1394;47.044;15.744;2023-10-13T04:00:09;25.43;;;2.40;;
2772;SDS011;1394;47.044;15.744;2023-10-13T04:02:47;25.30;;;2.10;;
2772;SDS011;1394;47.044;15.744;2023-10-13T04:05:20;24.70;;;1.97;;
2772;SDS011;1394;47.044;15.744;2023-10-13T04:08:01;25.10;;;2.10;;
2772;SDS011;1394;47.044;15.744;2023-10-13T04:10:49;27.40;;;2.13;;
2772;SDS011;1394;47.044;15.744;2023-10-13T04:13:33;24.93;;;1.60;;
2772;SDS011;1394;47.044;15.744;2023-10-13T04:16:29;24.80;;;1.83;;
2772;SDS011;1394;47.044;15.744;2023-10-13T04:19:18;25.30;;;2.00;;
2772;SDS011;1394;47.044;15.744;2023-10-13T04:21:54;26.47;;;1.90;;
2772;SDS011;1394;47.044;15.744;2023-10-13T04:24:22;25.47;;;2.10;;
2772;SDS011;1394;47.044;15.744;2023-10-13T04:27:14;24.90;;;2.23;;
2772;SDS011;1394;47.044;15.744;2023-10-13T04:29:54;25.27;;;2.20;;
2772;SDS011;1394;47.044;15.744;2023-10-13T04:32:35;24.40;;;2.00;;
2772;SDS011;1394;47.044;15.744;2023-10-13T04:35:05;26.20;;;1.90;;
2772;SDS011;1394;47.044;15.744;2023-10-13T04:37:35;24.17;;;1.80;;
2772;SDS011;1394;47.044;15.744;2023-10-13T04:40:16;25.33;;;2.20;;
2772;SDS011;1394;47.044;15.744;2023-10-13T04:42:44;24.57;;;2.10;;
2772;SDS011;1394;47.044;15.744;2023-10-13T04:45:19;25.00;;;1.77;;
2772;SDS011;1394;47.044;15.744;2023-10-13T04:48:14;24.80;;;2.17;;
2772;SDS011;1394;47.044;15.744;2023-10-13T04:50:58;24.87;;;1.77;;
2772;SDS011;1394;47.044;15.744;2023-10-13T04:53:45;24.90;;;2.07;;
2772;SDS011;1394;47.044;15.744;2023-10-13T04:56:35;26.40;;;2.00;;
2772;SDS011;1394;47.044;15.744;2023-10-13T04:59:20;24.87;;;1.97;;
2772;SDS011;1394;47.044;15.744;2023-10-13T05:02:23;26.10;;;2.20;;
2772;SDS011;1394;47.044;15.744;2023-10-13T05:05:20;24.53;;;2.37;;
2772;SDS011;1394;47.044;15.744;2023-10-13T05:08:11;24.87;;;2.20;;
2772;SDS011;1394;47.044;15.744;2023-10-13T05:11:01;26.27;;;2.40;;
2772;SDS011;1394;47.044;15.744;2023-10-13T05:13:52;25.70;;;2.47;;
2772;SDS011;1394;47.044;15.744;2023-10-13T05:16:39;24.93;;;2.00;;
2772;SDS011;1394;47.044;15.744;2023-10-13T05:19:25;24.87;;;2.83;;
2772;SDS011;1394;47.044;15.744;2023-10-13T05:22:10;24.80;;;2.47;;
2772;SDS011;1394;47.044;15.744;2023-10-13T05:24:56;25.23;;;2.33;;
2772;SDS011;1394;47.044;15.744;2023-10-13T05:27:40;26.00;;;3.10;;
2772;SDS011;1394;47.044;15.744;2023-10-13T05:30:25;26.53;;;2.60;;
2772;SDS011;1394;47.044;15.744;2023-10-13T05:33:10;26.60;;;2.60;;
2772;SDS011;1394;47.044;15.744;2023-10-13T05:35:54;24.37;;;2.10;;
2772;SDS011;1394;47.044;15.744;2023-10-13T05:38:39;24.50;;;2.00;;
2772;SDS011;1394;47.044;15.744;2023-10-13T05:41:25;26.27;;;2.70;;
2772;SDS011;1394;47.044;15.744;2023-10-13T05:44:10;26.07;;;2.70;;
2772;SDS011;1394;47.044;15.744;2023-10-13T05:46:57;24.67;;;2.37;;
2772;SDS011;1394;47.044;15.744;2023-10-13T05:49:47;24.87;;;2.17;;
2772;SDS011;1394;47.044;15.744;2023-10-13T05:52:29;25.23;;;2.47;;
2772;SDS011;1394;47.044;15.744;2023-10-13T05:55:14;25.40;;;2.33;;
2772;SDS011;1394;47.044;15.744;2023-10-13T05:58:00;24.67;;;2.50;;
2772;SDS011;1394;47.044;15.744;2023-10-13T06:00:45;27.03;;;2.50;;
2772;SDS011;1394;47.044;15.744;2023-10-13T06:03:29;26.07;;;2.90;;
2772;SDS011;1394;47.044;15.744;2023-10-13T06:06:14;25.73;;;2.90;;
2772;SDS011;1394;47.044;15.744;2023-10-13T06:08:59;24.93;;;2.10;;
2772;SDS011;1394;47.044;15.744;2023-10-13T06:11:43;25.00;;;2.30;;
2772;SDS011;1394;47.044;15.744;2023-10-13T06:14:29;24.67;;;2.33;;
2772;SDS011;1394;47.044;15.744;2023-10-13T06:17:14;25.00;;;2.07;;
2772;SDS011;1394;47.044;15.744;2023-10-13T06:19:59;26.13;;;2.87;;
2772;SDS011;1394;47.044;15.744;2023-10-13T06:22:46;26.33;;;2.40;;
2772;SDS011;1394;47.044;15.744;2023-10-13T06:25:31;26.63;;;2.90;;
2772;SDS011;1394;47.044;15.744;2023-10-13T06:28:17;26.57;;;2.80;;
2772;SDS011;1394;47.044;15.744;2023-10-13T06:31:03;26.40;;;2.87;;
2772;SDS011;1394;47.044;15.744;2023-10-13T06:33:31;24.73;;;2.20;;
2772;SDS011;1394;47.044;15.744;2023-10-13T06:35:59;25.13;;;2.50;;
2772;SDS011;1394;47.044;15.744;2023-10-13T06:38:29;25.20;;;2.60;;
2772;SDS011;1394;47.044;15.744;2023-10-13T06:41:01;25.47;;;2.60;;
2772;SDS011;1394;47.044;15.744;2023-10-13T06:43:30;25.40;;;2.70;;
2772;SDS011;1394;47.044;15.744;2023-10-13T06:46:05;24.97;;;2.10;;
2772;SDS011;1394;47.044;15.744;2023-10-13T06:48:40;25.73;;;2.60;;
2772;SDS011;1394;47.044;15.744;2023-10-13T06:51:10;26.10;;;2.30;;
2772;SDS011;1394;47.044;15.744;2023-10-13T06:53:43;25.73;;;2.50;;
2772;SDS011;1394;47.044;15.744;2023-10-13T06:56:13;25.37;;;2.20;;
2772;SDS011;1394;47.044;15.744;2023-10-13T06:58:43;26.20;;;2.50;;
2772;SDS011;1394;47.044;15.744;2023-10-13T07:01:13;26.80;;;2.73;;
2772;SDS011;1394;47.044;15.744;2023-10-13T07:03:41;26.10;;;2.23;;
2772;SDS011;1394;47.044;15.744;2023-10-13T07:06:08;25.47;;;2.30;;
2772;SDS011;1394;47.044;15.744;2023-10-13T07:08:37;26.07;;;2.27;;
2772;SDS011;1394;47.044;15.744;2023-10-13T07:11:17;25.90;;;2.50;;
2772;SDS011;1394;47.044;15.744;2023-10-13T07:13:59;26.43;;;2.40;;
2772;SDS011;1394;47.044;15.744;2023-10-13T07:16:36;24.80;;;2.10;;
2772;SDS011;1394;47.044;15.744;2023-10-13T07:19:08;25.90;;;2.73;;
2772;SDS011;1394;47.044;15.744;2023-10-13T07:21:35;27.00;;;2.50;;
2772;SDS011;1394;47.044;15.744;2023-10-13T07:24:10;25.70;;;2.23;;
2772;SDS011;1394;47.044;15.744;2023-10-13T07:26:37;25.43;;;2.27;;
2772;SDS011;1394;47.044;15.744;2023-10-13T07:29:11;26.50;;;3.30;;
2772;SDS011;1394;47.044;15.744;2023-10-13T07:31:41;27.30;;;3.00;;
2772;SDS011;1394;47.044;15.744;2023-10-13T07:34:10;25.17;;;2.53;;
2772;SDS011;1394;47.044;15.744;2023-10-13T07:36:51;25.60;;;2.23;;
2772;SDS011;1394;47.044;15.744;2023-10-13T07:39:22;25.80;;;2.53;;
2772;SDS011;1394;47.044;15.744;2023-10-13T07:41:50;25.60;;;2.47;;
2772;SDS011;1394;47.044;15.744;2023-10-13T07:44:20;25.47;;;2.37;;
2772;SDS011;1394;47.044;15.744;2023-10-13T07:46:52;26.33;;;2.60;;
2772;SDS011;1394;47.044;15.744;2023-10-13T07:49:28;25.77;;;2.77;;
2772;SDS011;1394;47.044;15.744;2023-10-13T07:52:00;26.17;;;2.33;;
2772;SDS011;1394;47.044;15.744;2023-10-13T07:54:41;25.97;;;2.80;;
2772;SDS011;1394;47.044;15.744;2023-10-13T07:57:12;26.57;;;2.77;;
2772;SDS011;1394;47.044;15.744;2023-10-13T07:59:41;25.40;;;2.20;;
2772;SDS011;1394;47.044;15.744;2023-10-13T08:02:14;26.87;;;2.50;;
2772;SDS011;1394;47.044;15.744;2023-10-13T08:05:02;26.23;;;2.63;;
2772;SDS011;1394;47.044;15.744;2023-10-13T08:10:35;25.00;;;2.10;;
2772;SDS011;1394;47.044;15.744;2023-10-13T08:13:02;25.03;;;2.20;;
2772;SDS011;1394;47.044;15.744;2023-10-13T08:15:37;29.07;;;2.20;;
2772;SDS011;1394;47.044;15.744;2023-10-13T08:18:13;25.97;;;2.50;;
2772;SDS011;1394;47.044;15.744;2023-10-13T08:20:55;25.97;;;2.20;;
2772;SDS011;1394;47.044;15.744;2023-10-13T08:23:27;25.90;;;2.30;;
2772;SDS011;1394;47.044;15.744;2023-10-13T08:26:11;26.10;;;2.20;;
2772;SDS011;1394;47.044;15.744;2023-10-13T08:29:11;27.20;;;2.67;;
2772;SDS011;1394;47.044;15.744;2023-10-13T08:31:56;26.30;;;2.30;;
2772;SDS011;1394;47.044;15.744;2023-10-13T08:34:40;26.73;;;2.50;;
2772;SDS011;1394;47.044;15.744;2023-10-13T08:37:21;26.67;;;2.40;;
2772;SDS011;1394;47.044;15.744;2023-10-13T08:42:38;25.97;;;2.10;;
2772;SDS011;1394;47.044;15.744;2023-10-13T08:45:26;25.73;;;2.30;;
2772;SDS011;1394;47.044;15.744;2023-10-13T08:48:09;26.70;;;2.60;;
2772;SDS011;1394;47.044;15.744;2023-10-13T08:50:41;26.53;;;2.77;;
2772;SDS011;1394;47.044;15.744;2023-10-13T08:53:18;27.23;;;2.47;;
2772;SDS011;1394;47.044;15.744;2023-10-13T08:56:01;26.30;;;2.40;;
2772;SDS011;1394;47.044;15.744;2023-10-13T08:58:35;26.10;;;2.03;;
2772;SDS011;1394;47.044;15.744;2023-10-13T09:01:22;25.47;;;2.13;;
2772;SDS011;1394;47.044;15.744;2023-10-13T09:04:12;27.60;;;2.20;;
2772;SDS011;1394;47.044;15.744;2023-10-13T09:06:47;25.77;;;2.23;;
2772;SDS011;1394;47.044;15.744;2023-10-13T09:09:26;26.07;;;2.07;;
2772;SDS011;1394;47.044;15.744;2023-10-13T09:11:53;28.03;;;2.13;;
2772;SDS011;1394;47.044;15.744;2023-10-13T09:14:33;25.63;;;1.80;;
2772;SDS011;1394;47.044;15.744;2023-10-13T09:17:03;25.90;;;1.87;;
2772;SDS011;1394;47.044;15.744;2023-10-13T09:19:47;26.17;;;2.10;;
2772;SDS011;1394;47.044;15.744;2023-10-13T09:22:22;26.20;;;1.80;;
2772;SDS011;1394;47.044;15.744;2023-10-13T09:24:55;26.50;;;2.20;;
2772;SDS011;1394;47.044;15.744;2023-10-13T09:27:24;25.87;;;1.70;;
2772;SDS011;1394;47.044;15.744;2023-10-13T09:29:55;25.60;;;1.77;;
2772;SDS011;1394;47.044;15.744;2023-10-13T09:32:23;26.07;;;1.80;;
2772;SDS011;1394;47.044;15.744;2023-10-13T09:34:53;25.47;;;1.70;;
2772;SDS011;1394;47.044;15.744;2023-10-13T09:37:25;25.40;;;1.70;;
2772;SDS011;1394;47.044;15.744;2023-10-13T09:39:53;25.87;;;1.77;;
2772;SDS011;1394;47.044;15.744;2023-10-13T09:42:29;26.90;;;2.10;;
2772;SDS011;1394;47.044;15.744;2023-10-13T09:44:59;26.30;;;1.73;;
2772;SDS011;1394;47.044;15.744;2023-10-13T09:47:30;25.87;;;1.70;;
2772;SDS011;1394;47.044;15.744;2023-10-13T09:50:02;25.07;;;1.60;;
2772;SDS011;1394;47.044;15.744;2023-10-13T09:52:30;25.77;;;1.70;;
2772;SDS011;1394;47.044;15.744;2023-10-13T09:55:05;25.90;;;1.70;;
2772;SDS011;1394;47.044;15.744;2023-10-13T09:57:39;26.13;;;1.80;;
2772;SDS011;1394;47.044;15.744;2023-10-13T10:00:11;26.27;;;2.10;;
2772;SDS011;1394;47.044;15.744;2023-10-13T10:03:01;25.07;;;1.80;;
2772;SDS011;1394;47.044;15.744;2023-10-13T10:05:41;25.47;;;1.70;;
2772;SDS011;1394;47.044;15.744;2023-10-13T10:08:23;26.00;;;1.70;;
2772;SDS011;1394;47.044;15.744;2023-10-13T10:10:59;26.50;;;1.77;;
2772;SDS011;1394;47.044;15.744;2023-10-13T10:13:35;25.60;;;1.60;;
2772;SDS011;1394;47.044;15.744;2023-10-13T10:16:07;25.37;;;1.70;;
2772;SDS011;1394;47.044;15.744;2023-10-13T10:18:41;25.60;;;1.50;;
2772;SDS011;1394;47.044;15.744;2023-10-13T10:21:09;25.10;;;1.40;;
2772;SDS011;1394;47.044;15.744;2023-10-13T10:23:42;25.23;;;1.80;;
2772;SDS011;1394;47.044;15.744;2023-10-13T10:26:19;25.17;;;1.60;;
2772;SDS011;1394;47.044;15.744;2023-10-13T10:28:51;25.43;;;1.60;;
2772;SDS011;1394;47.044;15.744;2023-10-13T10:31:19;26.87;;;1.50;;
2772;SDS011;1394;47.044;15.744;2023-10-13T10:33:54;25.20;;;1.70;;
2772;SDS011;1394;47.044;15.744;2023-10-13T10:36:28;25.07;;;1.50;;
2772;SDS011;1394;47.044;15.744;2023-10-13T10:38:58;25.80;;;1.50;;
2772;SDS011;1394;47.044;15.744;2023-10-13T10:41:26;25.43;;;1.33;;
2772;SDS011;1394;47.044;15.744;2023-10-13T10:44:09;26.30;;;1.67;;
2772;SDS011;1394;47.044;15.744;2023-10-13T10:46:42;26.10;;;1.97;;
2772;SDS011;1394;47.044;15.744;2023-10-13T10:49:23;26.77;;;1.30;;
2772;SDS011;1394;47.044;15.744;2023-10-13T10:51:56;25.40;;;1.43;;
2772;SDS011;1394;47.044;15.744;2023-10-13T10:54:29;24.70;;;1.30;;
2772;SDS011;1394;47.044;15.744;2023-10-13T10:57:00;26.10;;;1.70;;
2772;SDS011;1394;47.044;15.744;2023-10-13T10:59:44;24.40;;;1.23;;
2772;SDS011;1394;47.044;15.744;2023-10-13T11:02:13;25.10;;;1.50;;
2772;SDS011;1394;47.044;15.744;2023-10-13T11:04:53;25.10;;;1.37;;
2772;SDS011;1394;47.044;15.744;2023-10-13T11:07:23;24.40;;;1.40;;
2772;SDS011;1394;47.044;15.744;2023-10-13T11:09:52;25.47;;;1.50;;
2772;SDS011;1394;47.044;15.744;2023-10-13T11:12:31;27.23;;;1.57;;
2772;SDS011;1394;47.044;15.744;2023-10-13T11:15:00;24.67;;;1.70;;
2772;SDS011;1394;47.044;15.744;2023-10-13T11:17:37;25.70;;;1.37;;
2772;SDS011;1394;47.044;15.744;2023-10-13T11:20:16;25.30;;;1.53;;
2772;SDS011;1394;47.044;15.744;2023-10-13T11:22:54;24.80;;;1.77;;
2772;SDS011;1394;47.044;15.744;2023-10-13T11:25:22;25.00;;;1.60;;
2772;SDS011;1394;47.044;15.744;2023-10-13T11:27:54;25.33;;;2.20;;
2772;SDS011;1394;47.044;15.744;2023-10-13T11:30:23;24.53;;;1.30;;
2772;SDS011;1394;47.044;15.744;2023-10-13T11:33:07;24.90;;;1.43;;
2772;SDS011;1394;47.044;15.744;2023-10-13T11:35:36;24.93;;;1.30;;
2772;SDS011;1394;47.044;15.744;2023-10-13T11:38:21;24.97;;;1.40;;
2772;SDS011;1394;47.044;15.744;2023-10-13T11:40:53;24.10;;;1.20;;
2772;SDS011;1394;47.044;15.744;2023-10-13T11:43:34;25.50;;;1.53;;
2772;SDS011;1394;47.044;15.744;2023-10-13T11:46:18;24.57;;;1.20;;
2772;SDS011;1394;47.044;15.744;2023-10-13T11:49:05;24.30;;;1.20;;
2772;SDS011;1394;47.044;15.744;2023-10-13T11:51:44;25.47;;;1.37;;
2772;SDS011;1394;47.044;15.744;2023-10-13T11:54:12;24.93;;;1.33;;
2772;SDS011;1394;47.044;15.744;2023-10-13T11:56:40;24.23;;;1.00;;
2772;SDS011;1394;47.044;15.744;2023-10-13T11:59:09;25.03;;;1.30;;
2772;SDS011;1394;47.044;15.744;2023-10-13T12:01:43;24.43;;;1.50;;
2772;SDS011;1394;47.044;15.744;2023-10-13T12:04:27;24.17;;;1.38;;
2772;SDS011;1394;47.044;15.744;2023-10-13T12:07:09;24.63;;;1.45;;
2772;SDS011;1394;47.044;15.744;2023-10-13T12:09:47;24.50;;;1.20;;
2772;SDS011;1394;47.044;15.744;2023-10-13T12:12:33;24.77;;;1.35;;
2772;SDS011;1394;47.044;15.744;2023-10-13T12:15:08;24.93;;;1.33;;
2772;SDS011;1394;47.044;15.744;2023-10-13T12:17:39;26.67;;;1.50;;
2772;SDS011;1394;47.044;15.744;2023-10-13T12:20:10;25.60;;;1.07;;
2772;SDS011;1394;47.044;15.744;2023-10-13T12:22:53;24.23;;;1.25;;
2772;SDS011;1394;47.044;15.744;2023-10-13T12:25:21;24.63;;;1.38;;
2772;SDS011;1394;47.044;15.744;2023-10-13T12:28:09;24.83;;;1.35;;
2772;SDS011;1394;47.044;15.744;2023-10-13T12:30:43;24.50;;;1.40;;
2772;SDS011;1394;47.044;15.744;2023-10-13T12:33:23;24.45;;;1.40;;
2772;SDS011;1394;47.044;15.744;2023-10-13T12:36:03;24.80;;;1.95;;
2772;SDS011;1394;47.044;15.744;2023-10-13T12:41:35;24.77;;;1.60;;
2772;SDS011;1394;47.044;15.744;2023-10-13T12:44:20;24.30;;;1.58;;
2772;SDS011;1394;47.044;15.744;2023-10-13T12:47:04;24.95;;;1.48;;
2772;SDS011;1394;47.044;15.744;2023-10-13T12:49:49;24.83;;;1.33;;
2772;SDS011;1394;47.044;15.744;2023-10-13T12:52:23;24.98;;;1.58;;
2772;SDS011;1394;47.044;15.744;2023-10-13T12:54:58;24.08;;;1.20;;
2772;SDS011;1394;47.044;15.744;2023-10-13T12:57:35;24.95;;;1.40;;
2772;SDS011;1394;47.044;15.744;2023-10-13T13:00:10;23.90;;;1.25;;
2772;SDS011;1394;47.044;15.744;2023-10-13T13:02:46;25.17;;;1.50;;
2772;SDS011;1394;47.044;15.744;2023-10-13T13:05:15;24.13;;;1.30;;
2772;SDS011;1394;47.044;15.744;2023-10-13T13:07:47;25.05;;;1.50;;
2772;SDS011;1394;47.044;15.744;2023-10-13T13:10:18;24.40;;;1.33;;
2772;SDS011;1394;47.044;15.744;2023-10-13T13:12:55;25.67;;;1.42;;
2772;SDS011;1394;47.044;15.744;2023-10-13T13:15:23;24.40;;;1.48;;
2772;SDS011;1394;47.044;15.744;2023-10-13T13:17:50;24.67;;;1.50;;
2772;SDS011;1394;47.044;15.744;2023-10-13T13:20:20;24.70;;;1.70;;
2772;SDS011;1394;47.044;15.744;2023-10-13T13:22:55;24.30;;;1.52;;
2772;SDS011;1394;47.044;15.744;2023-10-13T13:25:27;25.27;;;1.40;;
2772;SDS011;1394;47.044;15.744;2023-10-13T13:28:00;24.23;;;1.50;;
2772;SDS011;1394;47.044;15.744;2023-10-13T13:30:31;24.50;;;1.63;;
2772;SDS011;1394;47.044;15.744;2023-10-13T13:33:08;24.65;;;1.42;;
2772;SDS011;1394;47.044;15.744;2023-10-13T13:35:52;24.98;;;1.40;;
2772;SDS011;1394;47.044;15.744;2023-10-13T13:38:20;27.00;;;1.67;;
2772;SDS011;1394;47.044;15.744;2023-10-13T13:40:55;25.60;;;1.67;;
2772;SDS011;1394;47.044;15.744;2023-10-13T13:43:28;25.33;;;1.67;;
2772;SDS011;1394;47.044;15.744;2023-10-13T13:46:15;25.10;;;1.40;;
2772;SDS011;1394;47.044;15.744;2023-10-13T13:48:57;27.40;;;1.70;;
2772;SDS011;1394;47.044;15.744;2023-10-13T13:51:26;25.47;;;1.70;;
2772;SDS011;1394;47.044;15.744;2023-10-13T13:53:54;26.23;;;1.60;;
2772;SDS011;1394;47.044;15.744;2023-10-13T13:56:22;26.43;;;1.70;;
2772;SDS011;1394;47.044;15.744;2023-10-13T13:58:54;25.47;;;1.50;;
2772;SDS011;1394;47.044;15.744;2023-10-13T14:01:21;25.50;;;1.87;;
2772;SDS011;1394;47.044;15.744;2023-10-13T14:03:54;26.00;;;1.63;;
2772;SDS011;1394;47.044;15.744;2023-10-13T14:06:27;26.10;;;1.60;;
2772;SDS011;1394;47.044;15.744;2023-10-13T14:08:55;25.37;;;1.47;;
2772;SDS011;1394;47.044;15.744;2023-10-13T14:11:25;25.73;;;1.40;;
2772;SDS011;1394;47.044;15.744;2023-10-13T14:14:12;25.50;;;1.60;;
2772;SDS011;1394;47.044;15.744;2023-10-13T14:16:53;25.63;;;1.40;;
2772;SDS011;1394;47.044;15.744;2023-10-13T14:19:28;26.50;;;1.50;;
2772;SDS011;1394;47.044;15.744;2023-10-13T14:21:56;25.17;;;1.53;;
2772;SDS011;1394;47.044;15.744;2023-10-13T14:24:24;26.57;;;1.90;;
2772;SDS011;1394;47.044;15.744;2023-10-13T14:26:55;25.57;;;1.50;;
2772;SDS011;1394;47.044;15.744;2023-10-13T14:29:26;28.50;;;1.70;;
2772;SDS011;1394;47.044;15.744;2023-10-13T14:31:54;25.37;;;1.80;;
2772;SDS011;1394;47.044;15.744;2023-10-13T14:34:25;25.60;;;1.83;;
2772;SDS011;1394;47.044;15.744;2023-10-13T14:36:52;25.70;;;1.73;;
2772;SDS011;1394;47.044;15.744;2023-10-13T14:39:26;26.13;;;1.77;;
2772;SDS011;1394;47.044;15.744;2023-10-13T14:41:55;26.50;;;2.30;;
2772;SDS011;1394;47.044;15.744;2023-10-13T14:44:26;26.07;;;2.20;;
2772;SDS011;1394;47.044;15.744;2023-10-13T14:46:55;26.90;;;1.80;;
2772;SDS011;1394;47.044;15.744;2023-10-13T14:49:22;27.57;;;2.00;;
2772;SDS011;1394;47.044;15.744;2023-10-13T14:51:51;27.10;;;2.23;;
2772;SDS011;1394;47.044;15.744;2023-10-13T14:54:28;28.23;;;2.20;;
2772;SDS011;1394;47.044;15.744;2023-10-13T14:57:01;26.77;;;2.23;;
2772;SDS011;1394;47.044;15.744;2023-10-13T14:59:30;25.87;;;2.10;;
2772;SDS011;1394;47.044;15.744;2023-10-13T15:02:06;26.90;;;2.30;;
2772;SDS011;1394;47.044;15.744;2023-10-13T15:04:33;27.40;;;2.00;;
2772;SDS011;1394;47.044;15.744;2023-10-13T15:07:01;26.30;;;2.20;;
2772;SDS011;1394;47.044;15.744;2023-10-13T15:09:28;29.97;;;2.50;;
2772;SDS011;1394;47.044;15.744;2023-10-13T15:11:57;26.20;;;2.17;;
2772;SDS011;1394;47.044;15.744;2023-10-13T15:14:26;26.00;;;2.40;;
2772;SDS011;1394;47.044;15.744;2023-10-13T15:16:54;27.90;;;2.30;;
2772;SDS011;1394;47.044;15.744;2023-10-13T15:19:25;27.33;;;2.23;;
2772;SDS011;1394;47.044;15.744;2023-10-13T15:21:55;26.60;;;2.27;;
2772;SDS011;1394;47.044;15.744;2023-10-13T15:24:23;27.07;;;2.70;;
2772;SDS011;1394;47.044;15.744;2023-10-13T15:26:52;27.47;;;3.03;;
2772;SDS011;1394;47.044;15.744;2023-10-13T15:29:26;26.60;;;2.67;;
2772;SDS011;1394;47.044;15.744;2023-10-13T15:32:02;26.97;;;2.70;;
2772;SDS011;1394;47.044;15.744;2023-10-13T15:34:46;28.73;;;2.40;;
2772;SDS011;1394;47.044;15.744;2023-10-13T15:37:13;26.40;;;2.50;;
2772;SDS011;1394;47.044;15.744;2023-10-13T15:39:41;26.50;;;2.13;;
2772;SDS011;1394;47.044;15.744;2023-10-13T15:42:08;27.10;;;2.50;;